createdAt,value
2019-02-27T00:02:11.922Z,3.03
2019-02-27T00:04:40.001Z,2.70
2019-02-27T00:07:08.078Z,3.20
2019-02-27T00:09:36.194Z,5.50
2019-02-27T00:12:04.231Z,6.30
2019-02-27T00:14:32.321Z,3.07
2019-02-27T00:17:00.419Z,5.80
2019-02-27T00:19:30.911Z,4.47
2019-02-27T00:21:58.286Z,3.27
2019-02-27T00:24:27.084Z,2.97
2019-02-27T00:26:56.081Z,7.93
2019-02-27T00:29:24.170Z,3.07
2019-02-27T00:31:52.230Z,4.00
2019-02-27T00:34:20.269Z,3.00
2019-02-27T00:36:48.334Z,4.57
2019-02-27T00:39:16.426Z,1.83
2019-02-27T00:41:46.044Z,4.50
2019-02-27T00:44:14.174Z,2.73
2019-02-27T00:46:43.951Z,4.83
2019-02-27T00:49:11.989Z,4.13
2019-02-27T00:51:40.046Z,2.27
2019-02-27T00:54:08.107Z,3.93
2019-02-27T00:56:36.144Z,1.47
2019-02-27T00:59:04.309Z,5.00
2019-02-27T01:01:32.387Z,2.43
2019-02-27T01:04:02.399Z,3.00
2019-02-27T01:06:30.403Z,3.67
2019-02-27T01:08:58.484Z,1.80
2019-02-27T01:11:26.578Z,3.10
2019-02-27T01:13:54.614Z,1.13
2019-02-27T01:16:22.650Z,4.37
2019-02-27T01:18:51.046Z,1.63
2019-02-27T01:21:20.016Z,11.77
2019-02-27T01:23:48.258Z,3.53
2019-02-27T01:26:16.410Z,4.60
2019-02-27T01:28:45.503Z,3.00
2019-02-27T01:31:13.681Z,3.67
2019-02-27T01:33:41.822Z,3.00
2019-02-27T01:36:09.963Z,4.10
2019-02-27T01:38:38.604Z,3.33
2019-02-27T01:41:06.609Z,3.43
2019-02-27T01:43:39.851Z,4.53
2019-02-27T01:46:06.950Z,5.90
2019-02-27T01:48:35.017Z,3.80
2019-02-27T01:51:03.154Z,3.63
2019-02-27T01:53:31.351Z,4.73
2019-02-27T01:55:59.462Z,3.93
2019-02-27T01:58:27.643Z,3.37
2019-02-27T02:00:56.822Z,2.53
2019-02-27T02:03:24.986Z,6.30
2019-02-27T02:05:53.207Z,3.07
2019-02-27T02:08:21.537Z,3.13
2019-02-27T02:10:49.706Z,2.93
2019-02-27T02:13:19.745Z,4.90
2019-02-27T02:16:16.087Z,2.93
2019-02-27T02:18:48.241Z,6.83
2019-02-27T02:21:23.865Z,4.13
2019-02-27T02:24:00.040Z,3.40
2019-02-27T02:26:47.155Z,4.67
2019-02-27T02:29:21.061Z,3.40
2019-02-27T02:31:51.567Z,2.93
2019-02-27T02:34:40.152Z,2.37
2019-02-27T02:37:44.351Z,3.43
2019-02-27T02:40:32.069Z,4.57
2019-02-27T02:43:13.445Z,4.07
2019-02-27T02:45:44.144Z,5.97
2019-02-27T02:48:21.018Z,4.60
2019-02-27T02:51:17.320Z,2.33
2019-02-27T02:54:10.476Z,4.77
2019-02-27T02:57:01.968Z,2.17
2019-02-27T02:59:48.306Z,2.50
2019-02-27T03:02:35.415Z,4.00
2019-02-27T03:05:23.629Z,4.20
2019-02-27T03:08:09.750Z,3.57
2019-02-27T03:10:53.962Z,4.13
2019-02-27T03:13:33.646Z,1.70
2019-02-27T03:16:06.699Z,3.40
2019-02-27T03:18:44.236Z,6.27
2019-02-27T03:21:16.606Z,3.33
2019-02-27T03:24:06.647Z,3.23
2019-02-27T03:27:05.957Z,3.10
2019-02-27T03:29:56.115Z,2.87
2019-02-27T03:32:35.723Z,2.80
2019-02-27T03:35:06.793Z,4.73
2019-02-27T03:37:56.949Z,2.40
2019-02-27T03:40:34.969Z,1.87
2019-02-27T03:43:11.505Z,4.40
2019-02-27T03:45:55.711Z,2.20
2019-02-27T03:48:45.414Z,3.40
2019-02-27T03:51:24.687Z,2.93
2019-02-27T03:54:02.734Z,1.97
2019-02-27T03:56:50.720Z,1.93
2019-02-27T03:59:42.054Z,2.67
2019-02-27T04:02:25.338Z,1.50
2019-02-27T04:04:57.604Z,2.53
2019-02-27T04:07:44.726Z,2.90
2019-02-27T04:10:12.794Z,3.00
2019-02-27T04:12:40.895Z,2.17
2019-02-27T04:15:08.965Z,2.67
2019-02-27T04:17:36.486Z,2.03
2019-02-27T04:20:04.719Z,2.23
2019-02-27T04:22:36.441Z,2.60
2019-02-27T04:25:02.488Z,3.17
2019-02-27T04:27:30.589Z,3.03
2019-02-27T04:29:58.635Z,4.67
2019-02-27T04:32:26.709Z,2.30
2019-02-27T04:34:54.811Z,3.23
2019-02-27T04:37:22.825Z,1.87
2019-02-27T04:39:50.880Z,2.10
2019-02-27T04:42:18.922Z,1.90
2019-02-27T04:44:46.954Z,4.30
2019-02-27T04:47:15.022Z,4.00
2019-02-27T04:49:43.137Z,2.97
2019-02-27T04:52:11.163Z,3.00
2019-02-27T04:54:41.475Z,3.97
2019-02-27T04:57:08.805Z,2.40
2019-02-27T04:59:36.819Z,3.40
2019-02-27T05:02:04.860Z,2.23
2019-02-27T05:04:35.302Z,3.00
2019-02-27T05:07:02.722Z,3.07
2019-02-27T05:09:31.443Z,2.20
2019-02-27T05:12:00.411Z,3.13
2019-02-27T05:14:28.463Z,4.33
2019-02-27T05:16:56.996Z,2.90
2019-02-27T05:19:26.306Z,3.03
2019-02-27T05:21:54.234Z,3.33
2019-02-27T05:24:22.268Z,4.67
2019-02-27T05:26:50.275Z,4.37
2019-02-27T05:29:18.340Z,4.23
2019-02-27T05:31:46.410Z,4.67
2019-02-27T05:34:14.450Z,4.50
2019-02-27T05:36:42.477Z,3.90
2019-02-27T05:39:10.559Z,4.90
2019-02-27T05:41:38.596Z,2.87
2019-02-27T05:44:06.620Z,3.23
2019-02-27T05:46:35.702Z,7.93
2019-02-27T05:49:04.243Z,5.50
2019-02-27T05:51:32.323Z,4.27
2019-02-27T05:54:00.237Z,3.63
2019-02-27T05:56:28.278Z,4.17
2019-02-27T05:58:56.826Z,4.90
2019-02-27T06:01:24.898Z,4.67
2019-02-27T06:03:55.503Z,6.57
2019-02-27T06:06:23.501Z,5.67
2019-02-27T06:08:51.501Z,4.60
2019-02-27T06:11:19.567Z,4.73
2019-02-27T06:13:48.238Z,5.03
2019-02-27T06:16:16.304Z,3.80
2019-02-27T06:18:44.396Z,6.33
2019-02-27T06:21:13.443Z,5.47
2019-02-27T06:23:42.128Z,7.73
2019-02-27T06:26:10.644Z,13.83
2019-02-27T06:28:39.788Z,8.43
2019-02-27T06:31:07.741Z,9.43
2019-02-27T06:33:35.843Z,6.47
2019-02-27T06:36:05.309Z,6.03
2019-02-27T06:38:33.679Z,5.97
2019-02-27T06:41:01.648Z,5.63
2019-02-27T06:43:29.715Z,6.47
2019-02-27T06:45:57.785Z,6.23
2019-02-27T06:48:25.828Z,6.33
2019-02-27T06:50:53.912Z,7.63
2019-02-27T06:53:21.920Z,7.20
2019-02-27T06:55:49.912Z,8.33
2019-02-27T06:58:17.940Z,8.50
2019-02-27T07:00:45.912Z,6.40
2019-02-27T07:03:13.960Z,8.23
2019-02-27T07:05:41.993Z,6.73
2019-02-27T07:08:09.964Z,5.83
2019-02-27T07:10:37.984Z,8.23
2019-02-27T07:13:06.067Z,6.17
2019-02-27T07:15:34.118Z,8.27
2019-02-27T07:18:03.505Z,6.37
2019-02-27T07:20:31.944Z,7.03
2019-02-27T07:23:00.217Z,7.20
2019-02-27T07:25:28.312Z,8.40
2019-02-27T07:27:56.329Z,6.47
2019-02-27T07:30:24.368Z,8.63
2019-02-27T07:32:52.371Z,8.90
2019-02-27T07:35:20.333Z,5.60
2019-02-27T07:37:48.380Z,6.37
2019-02-27T07:40:16.379Z,7.73
2019-02-27T07:42:44.489Z,6.70
2019-02-27T07:45:16.411Z,7.30
2019-02-27T07:47:44.456Z,5.70
2019-02-27T07:50:13.141Z,7.47
2019-02-27T07:52:41.095Z,5.70
2019-02-27T07:55:21.048Z,6.87
2019-02-27T07:57:38.979Z,7.13
2019-02-27T08:00:08.407Z,9.73
2019-02-27T08:02:36.834Z,5.87
2019-02-27T08:05:05.421Z,9.37
2019-02-27T08:07:33.439Z,7.03
2019-02-27T08:10:04.538Z,5.10
2019-02-27T08:12:31.407Z,8.83
2019-02-27T08:14:59.897Z,6.13
2019-02-27T08:17:29.188Z,6.53
2019-02-27T08:19:57.093Z,6.77
2019-02-27T08:22:25.124Z,6.63
2019-02-27T08:24:53.172Z,5.60
2019-02-27T08:27:23.420Z,6.80
2019-02-27T08:29:51.520Z,6.53
2019-02-27T08:32:19.644Z,7.80
2019-02-27T08:34:47.667Z,7.23
2019-02-27T08:37:15.729Z,8.07
2019-02-27T08:39:43.808Z,5.97
2019-02-27T08:42:11.881Z,6.03
2019-02-27T08:44:39.953Z,6.43
2019-02-27T08:47:10.228Z,4.27
2019-02-27T08:49:37.820Z,5.60
2019-02-27T08:52:05.892Z,4.80
2019-02-27T08:54:33.943Z,6.17
2019-02-27T08:57:02.084Z,5.20
2019-02-27T08:59:30.095Z,8.27
2019-02-27T09:01:58.093Z,4.40
2019-02-27T09:04:26.312Z,6.37
2019-02-27T09:06:54.696Z,5.07
2019-02-27T09:09:22.724Z,3.53
2019-02-27T09:11:50.776Z,5.23
2019-02-27T09:14:18.848Z,6.70
2019-02-27T09:16:46.853Z,3.97
2019-02-27T09:19:14.911Z,5.07
2019-02-27T09:21:42.899Z,7.37
2019-02-27T09:24:10.838Z,6.87
2019-02-27T09:26:38.891Z,5.90
2019-02-27T09:29:06.934Z,8.60
2019-02-27T09:31:37.753Z,5.87
2019-02-27T09:34:04.736Z,5.47
2019-02-27T09:36:32.681Z,4.17
2019-02-27T09:39:01.917Z,4.17
2019-02-27T09:41:29.966Z,3.93
2019-02-27T09:43:58.614Z,5.77
2019-02-27T09:46:27.613Z,5.63
2019-02-27T09:48:55.868Z,4.80
2019-02-27T09:51:23.987Z,4.57
2019-02-27T09:53:52.018Z,7.73
2019-02-27T09:56:20.227Z,8.63
2019-02-27T09:58:48.264Z,6.87
2019-02-27T10:01:17.324Z,4.67
2019-02-27T10:03:45.398Z,4.50
2019-02-27T10:06:13.527Z,7.43
2019-02-27T10:08:41.537Z,7.57
2019-02-27T10:11:09.608Z,3.87
2019-02-27T10:13:38.634Z,4.47
2019-02-27T10:16:06.893Z,9.90
2019-02-27T10:18:34.915Z,8.07
2019-02-27T10:21:03.052Z,7.27
2019-02-27T10:23:31.330Z,5.43
2019-02-27T10:25:59.551Z,6.77
2019-02-27T10:28:27.539Z,8.50
2019-02-27T10:30:55.659Z,7.50
2019-02-27T10:33:23.748Z,8.93
2019-02-27T10:35:51.766Z,9.67
2019-02-27T10:38:19.868Z,7.00
2019-02-27T10:40:48.032Z,7.47
2019-02-27T10:43:16.104Z,9.47
2019-02-27T10:45:48.500Z,7.50
2019-02-27T10:48:13.847Z,8.13
2019-02-27T10:50:41.933Z,9.57
2019-02-27T10:53:10.526Z,6.40
2019-02-27T10:55:38.664Z,8.80
2019-02-27T10:58:07.724Z,10.77
2019-02-27T11:00:36.071Z,6.07
2019-02-27T11:03:04.285Z,7.90
2019-02-27T11:05:32.588Z,7.97
2019-02-27T11:08:00.836Z,8.47
2019-02-27T11:10:28.858Z,7.73
2019-02-27T11:12:56.935Z,13.43
2019-02-27T11:15:24.947Z,7.33
2019-02-27T11:17:53.495Z,9.67
2019-02-27T11:20:22.458Z,8.47
2019-02-27T11:22:51.619Z,9.10
2019-02-27T11:25:22.558Z,14.57
2019-02-27T11:27:49.770Z,9.40
2019-02-27T11:30:22.072Z,8.03
2019-02-27T11:32:50.085Z,9.00
2019-02-27T11:35:18.091Z,11.70
2019-02-27T11:37:47.504Z,7.53
2019-02-27T11:40:16.880Z,6.70
2019-02-27T11:42:44.932Z,8.10
2019-02-27T11:45:13.078Z,10.67
2019-02-27T11:47:44.695Z,11.63
2019-02-27T11:50:11.740Z,11.30
2019-02-27T11:52:46.236Z,10.10
2019-02-27T11:55:10.078Z,8.57
2019-02-27T11:57:38.165Z,8.50
2019-02-27T12:00:07.284Z,7.67
2019-02-27T12:02:37.869Z,8.57
2019-02-27T12:05:05.560Z,6.33
2019-02-27T12:07:33.596Z,5.93
2019-02-27T12:10:01.891Z,6.87
2019-02-27T12:12:29.943Z,8.43
2019-02-27T12:14:58.033Z,6.50
2019-02-27T12:17:26.310Z,6.07
2019-02-27T12:19:54.303Z,6.97
2019-02-27T12:22:22.333Z,6.50
2019-02-27T12:24:52.907Z,8.10
2019-02-27T12:27:42.792Z,7.63
2019-02-27T12:29:49.940Z,4.73
2019-02-27T12:32:19.428Z,9.00
2019-02-27T12:34:47.577Z,12.27
2019-02-27T12:37:27.515Z,11.63
2019-02-27T12:39:47.261Z,5.77
2019-02-27T12:42:14.912Z,6.90
2019-02-27T12:44:42.904Z,5.33
2019-02-27T12:47:11.331Z,9.27
2019-02-27T12:49:39.437Z,5.53
2019-02-27T12:52:09.055Z,6.97
2019-02-27T12:54:37.230Z,5.63
2019-02-27T12:57:05.295Z,10.67
2019-02-27T12:59:33.665Z,8.33
2019-02-27T13:02:08.267Z,9.43
2019-02-27T13:04:32.680Z,6.97
2019-02-27T13:07:00.822Z,5.33
2019-02-27T13:09:28.851Z,8.20
2019-02-27T13:11:57.071Z,6.40
2019-02-27T13:14:25.143Z,5.83
2019-02-27T13:16:53.295Z,6.37
2019-02-27T13:19:21.384Z,8.83
2019-02-27T13:21:49.471Z,9.70
2019-02-27T13:24:18.457Z,11.07
2019-02-27T13:26:47.430Z,8.87
2019-02-27T13:29:15.550Z,5.00
2019-02-27T13:31:43.700Z,10.53
2019-02-27T13:34:13.908Z,9.60
2019-02-27T13:36:41.623Z,6.13
2019-02-27T13:39:10.280Z,5.30
2019-02-27T13:41:38.432Z,6.30
2019-02-27T13:44:07.902Z,11.50
2019-02-27T13:46:36.111Z,6.07
2019-02-27T13:49:04.601Z,7.47
2019-02-27T13:51:33.821Z,9.13
2019-02-27T13:54:02.373Z,8.73
2019-02-27T13:56:30.425Z,9.00
2019-02-27T13:58:58.518Z,6.00
2019-02-27T14:01:28.596Z,12.50
2019-02-27T14:03:56.372Z,10.20
2019-02-27T14:06:24.470Z,10.60
2019-02-27T14:08:52.508Z,4.17
2019-02-27T14:11:20.509Z,6.90
2019-02-27T14:13:48.787Z,3.57
2019-02-27T14:16:16.764Z,5.83
2019-02-27T14:18:44.843Z,6.50
2019-02-27T14:21:14.856Z,4.93
2019-02-27T14:23:42.596Z,5.80
2019-02-27T14:26:10.625Z,6.17
2019-02-27T14:28:38.759Z,4.77
2019-02-27T14:31:08.960Z,9.93
2019-02-27T14:33:36.489Z,5.83
2019-02-27T14:36:08.326Z,9.30
2019-02-27T14:38:34.248Z,7.73
2019-02-27T14:41:02.273Z,9.70
2019-02-27T14:43:30.429Z,6.40
2019-02-27T14:45:58.535Z,6.23
2019-02-27T14:48:26.548Z,7.97
2019-02-27T14:50:54.503Z,5.60
2019-02-27T14:53:22.521Z,6.60
2019-02-27T14:55:50.539Z,8.40
2019-02-27T14:58:18.511Z,10.07
2019-02-27T15:00:46.691Z,5.07
2019-02-27T15:03:14.731Z,9.37
2019-02-27T15:05:44.738Z,8.23
2019-02-27T15:08:12.539Z,4.80
2019-02-27T15:10:41.290Z,4.40
2019-02-27T15:13:09.431Z,9.97
2019-02-27T15:15:37.431Z,6.67
2019-02-27T15:18:05.504Z,5.73
2019-02-27T15:20:34.611Z,12.33
2019-02-27T15:23:02.919Z,7.87
2019-02-27T15:25:30.921Z,7.77
2019-02-27T15:27:59.953Z,9.17
2019-02-27T15:30:28.445Z,4.07
2019-02-27T15:32:56.395Z,6.67
2019-02-27T15:35:24.393Z,8.13
2019-02-27T15:37:52.572Z,10.30
2019-02-27T15:40:21.185Z,8.87
2019-02-27T15:42:49.310Z,12.23
2019-02-27T15:45:17.842Z,12.67
2019-02-27T15:47:45.872Z,12.37
2019-02-27T15:50:14.888Z,9.40
2019-02-27T15:52:42.936Z,10.70
2019-02-27T15:55:11.008Z,13.33
2019-02-27T15:57:39.034Z,11.67
2019-02-27T16:00:07.189Z,8.40
2019-02-27T16:02:36.752Z,12.33
2019-02-27T16:05:05.566Z,9.07
2019-02-27T16:07:33.611Z,6.20
2019-02-27T16:10:06.647Z,4.23
2019-02-27T16:12:31.266Z,4.50
2019-02-27T16:14:59.335Z,9.83
2019-02-27T16:17:30.902Z,6.43
2019-02-27T16:19:57.051Z,6.57
2019-02-27T16:22:25.039Z,9.60
2019-02-27T16:24:53.022Z,6.17
2019-02-27T16:27:21.097Z,4.03
2019-02-27T16:29:49.066Z,8.23
2019-02-27T16:32:19.155Z,5.80
2019-02-27T16:34:47.223Z,11.73
2019-02-27T16:37:15.160Z,7.13
2019-02-27T16:39:45.717Z,7.30
2019-02-27T16:42:14.015Z,8.60
2019-02-27T16:44:42.063Z,7.40
2019-02-27T16:47:10.102Z,8.17
2019-02-27T16:49:38.107Z,5.90
2019-02-27T16:52:08.705Z,6.63
2019-02-27T16:54:35.787Z,11.13
2019-02-27T16:57:03.770Z,8.50
2019-02-27T16:59:31.856Z,5.63
2019-02-27T17:02:00.918Z,8.07
2019-02-27T17:04:31.000Z,6.43
2019-02-27T17:06:59.347Z,6.70
2019-02-27T17:09:27.348Z,14.07
2019-02-27T17:11:55.409Z,11.97
2019-02-27T17:14:24.377Z,8.17
2019-02-27T17:16:52.756Z,8.63
2019-02-27T17:19:20.888Z,6.97
2019-02-27T17:21:48.905Z,10.37
2019-02-27T17:24:20.943Z,4.90
2019-02-27T17:26:46.931Z,7.00
2019-02-27T17:29:14.961Z,5.23
2019-02-27T17:31:49.311Z,7.17
2019-02-27T17:34:13.768Z,6.57
2019-02-27T17:36:42.472Z,7.03
2019-02-27T17:39:10.501Z,7.17
2019-02-27T17:41:38.481Z,5.57
2019-02-27T17:44:06.581Z,4.07
2019-02-27T17:46:34.613Z,7.53
2019-02-27T17:49:02.626Z,10.60
2019-02-27T17:51:31.275Z,9.03
2019-02-27T17:53:59.453Z,8.17
2019-02-27T17:56:27.587Z,6.63
2019-02-27T17:58:55.771Z,5.83
2019-02-27T18:01:25.502Z,7.73
2019-02-27T18:03:53.793Z,7.73
2019-02-27T18:06:21.845Z,7.10
2019-02-27T18:08:52.338Z,9.30
2019-02-27T18:11:19.625Z,7.30
2019-02-27T18:13:47.828Z,7.77
2019-02-27T18:16:15.875Z,7.50
2019-02-27T18:18:44.077Z,7.93
2019-02-27T18:21:12.140Z,5.40
2019-02-27T18:23:41.831Z,9.07
2019-02-27T18:26:15.799Z,7.90
2019-02-27T18:28:42.730Z,3.83
2019-02-27T18:31:10.793Z,2.93
2019-02-27T18:33:38.852Z,6.93
2019-02-27T18:36:06.868Z,8.17
2019-02-27T18:38:34.938Z,10.50
2019-02-27T18:41:02.968Z,9.83
2019-02-27T18:43:31.011Z,7.37
2019-02-27T18:45:58.979Z,6.50
2019-02-27T18:48:27.049Z,4.10
2019-02-27T18:50:55.971Z,4.67
2019-02-27T18:53:24.795Z,3.63
2019-02-27T18:55:52.813Z,7.50
2019-02-27T18:58:21.605Z,4.80
2019-02-27T19:00:49.982Z,7.93
2019-02-27T19:03:18.063Z,1.97
2019-02-27T19:05:46.304Z,2.13
2019-02-27T19:08:14.268Z,1.73
2019-02-27T19:10:42.696Z,2.57
2019-02-27T19:13:11.126Z,3.33
2019-02-27T19:15:39.265Z,3.87
2019-02-27T19:18:08.304Z,3.73
2019-02-27T19:20:36.541Z,1.93
2019-02-27T19:23:04.987Z,3.60
2019-02-27T19:25:34.818Z,2.67
2019-02-27T19:28:02.708Z,4.90
2019-02-27T19:30:31.048Z,5.03
2019-02-27T19:33:01.893Z,7.97
2019-02-27T19:35:28.855Z,6.77
2019-02-27T19:37:56.837Z,9.70
2019-02-27T19:40:29.802Z,14.90
2019-02-27T19:42:58.871Z,20.27
2019-02-27T19:45:27.233Z,11.17
2019-02-27T19:47:55.849Z,24.87
2019-02-27T19:50:24.021Z,15.80
2019-02-27T19:52:52.121Z,7.37
2019-02-27T19:55:20.157Z,11.70
2019-02-27T19:57:48.182Z,3.17
2019-02-27T20:00:17.546Z,2.80
2019-02-27T20:02:46.393Z,4.00
2019-02-27T20:05:16.478Z,4.57
2019-02-27T20:07:44.507Z,2.97
2019-02-27T20:10:13.041Z,4.30
2019-02-27T20:12:41.249Z,2.07
2019-02-27T20:15:11.061Z,4.47
2019-02-27T20:17:40.577Z,3.07
2019-02-27T20:20:09.883Z,4.10
2019-02-27T20:22:39.053Z,2.30
2019-02-27T20:25:09.286Z,4.33
2019-02-27T20:27:37.643Z,2.37
2019-02-27T20:30:06.124Z,7.03
2019-02-27T20:32:34.660Z,2.93
2019-02-27T20:35:02.804Z,2.43
2019-02-27T20:37:30.848Z,3.27
2019-02-27T20:39:59.485Z,3.53
2019-02-27T20:42:30.905Z,3.17
2019-02-27T20:44:59.058Z,1.53
2019-02-27T20:47:27.223Z,6.03
2019-02-27T20:49:55.262Z,5.90
2019-02-27T20:52:23.337Z,4.80
2019-02-27T20:54:51.387Z,6.30
2019-02-27T20:57:19.488Z,3.20
2019-02-27T20:59:47.544Z,6.40
2019-02-27T21:02:18.681Z,4.70
2019-02-27T21:04:45.338Z,4.27
2019-02-27T21:07:22.078Z,2.53
2019-02-27T21:09:45.235Z,4.77
2019-02-27T21:12:13.982Z,5.03
2019-02-27T21:14:42.064Z,8.97
2019-02-27T21:17:10.104Z,3.50
2019-02-27T21:19:38.286Z,3.30
2019-02-27T21:22:06.283Z,2.47
2019-02-27T21:24:37.312Z,3.00
2019-02-27T21:27:04.439Z,3.20
2019-02-27T21:29:32.428Z,5.47
2019-02-27T21:32:01.436Z,2.67
2019-02-27T21:34:30.379Z,2.00
2019-02-27T21:36:58.416Z,5.33
2019-02-27T21:39:28.353Z,4.97
2019-02-27T21:41:56.271Z,5.30
2019-02-27T21:44:25.767Z,2.10
2019-02-27T21:46:53.959Z,5.83
2019-02-27T21:49:21.939Z,3.63
2019-02-27T21:51:51.047Z,6.10
2019-02-27T21:54:19.007Z,4.00
2019-02-27T21:56:49.207Z,3.00
2019-02-27T21:59:16.719Z,6.00
2019-02-27T22:01:44.736Z,6.17
2019-02-27T22:04:12.762Z,3.57
2019-02-27T22:06:40.763Z,3.40
2019-02-27T22:09:10.160Z,2.90
2019-02-27T22:11:39.566Z,1.53
2019-02-27T22:14:07.608Z,3.53
2019-02-27T22:16:35.748Z,2.37
2019-02-27T22:19:03.823Z,5.33
2019-02-27T22:21:34.238Z,4.27
2019-02-27T22:24:01.633Z,2.67
2019-02-27T22:26:29.613Z,4.70
2019-02-27T22:28:57.579Z,3.53
2019-02-27T22:31:25.609Z,3.93
2019-02-27T22:33:56.077Z,2.03
2019-02-27T22:36:23.265Z,3.27
2019-02-27T22:38:51.298Z,9.37
2019-02-27T22:41:19.219Z,6.57
2019-02-27T22:43:47.235Z,3.97
2019-02-27T22:46:16.485Z,5.30
2019-02-27T22:48:45.141Z,4.20
2019-02-27T22:51:13.507Z,4.17
2019-02-27T22:53:41.584Z,4.27
2019-02-27T22:56:09.534Z,5.07
2019-02-27T22:58:37.492Z,6.30
2019-02-27T23:01:22.435Z,1.70
2019-02-27T23:03:51.965Z,2.30
2019-02-27T23:06:20.063Z,4.60
2019-02-27T23:08:48.145Z,1.60
2019-02-27T23:11:16.213Z,1.50
2019-02-27T23:13:47.490Z,2.20
2019-02-27T23:16:15.432Z,3.93
2019-02-27T23:18:43.460Z,4.40
2019-02-27T23:21:11.546Z,4.03
2019-02-27T23:23:39.578Z,3.17
2019-02-27T23:26:07.632Z,6.20
2019-02-27T23:28:35.627Z,2.27
2019-02-27T23:31:03.589Z,2.20
2019-02-27T23:33:35.779Z,1.50
2019-02-27T23:36:01.395Z,2.73
2019-02-27T23:38:29.442Z,4.37
2019-02-27T23:40:57.440Z,1.93
2019-02-27T23:43:25.468Z,2.87
2019-02-27T23:45:53.476Z,1.70
2019-02-27T23:48:21.416Z,3.60
2019-02-27T23:50:49.449Z,4.73
2019-02-27T23:53:17.491Z,3.10
2019-02-27T23:55:45.573Z,1.43
2019-02-27T23:58:13.527Z,2.97
